createdAt,value
2018-12-07T00:00:31.549Z,966.00
2018-12-07T00:01:31.527Z,966.03
2018-12-07T00:02:31.458Z,965.98
2018-12-07T00:03:31.549Z,965.97
2018-12-07T00:04:31.352Z,965.97
2018-12-07T00:05:31.301Z,965.96
2018-12-07T00:06:31.251Z,966.01
2018-12-07T00:07:31.201Z,965.96
2018-12-07T00:08:31.350Z,965.93
2018-12-07T00:09:31.100Z,965.93
2018-12-07T00:10:31.050Z,965.93
2018-12-07T00:11:30.998Z,965.88
2018-12-07T00:12:30.951Z,965.89
2018-12-07T00:13:31.054Z,965.82
2018-12-07T00:14:30.851Z,965.82
2018-12-07T00:15:30.807Z,965.80
2018-12-07T00:16:30.767Z,965.81
2018-12-07T00:17:30.702Z,965.79
2018-12-07T00:18:30.843Z,965.80
2018-12-07T00:19:30.602Z,965.72
2018-12-07T00:20:30.556Z,965.79
2018-12-07T00:21:30.502Z,965.76
2018-12-07T00:22:30.455Z,965.78
2018-12-07T00:23:30.507Z,965.74
2018-12-07T00:24:30.367Z,965.70
2018-12-07T00:25:30.305Z,965.75
2018-12-07T00:26:30.270Z,965.68
2018-12-07T00:27:30.202Z,965.68
2018-12-07T00:28:30.361Z,965.68
2018-12-07T00:29:30.102Z,965.66
2018-12-07T00:30:30.054Z,965.67
2018-12-07T00:31:30.022Z,965.62
2018-12-07T00:32:29.991Z,965.62
2018-12-07T00:33:30.058Z,965.57
2018-12-07T00:34:29.854Z,965.60
2018-12-07T00:35:29.805Z,965.59
2018-12-07T00:36:29.752Z,965.56
2018-12-07T00:37:29.703Z,965.57
2018-12-07T00:38:29.869Z,965.54
2018-12-07T00:39:29.605Z,965.53
2018-12-07T00:40:29.553Z,965.52
2018-12-07T00:41:29.505Z,965.45
2018-12-07T00:42:29.454Z,965.45
2018-12-07T00:43:29.555Z,965.42
2018-12-07T00:44:29.354Z,965.39
2018-12-07T00:45:29.304Z,965.39
2018-12-07T00:46:29.277Z,965.35
2018-12-07T00:47:29.204Z,965.37
2018-12-07T00:48:29.342Z,965.32
2018-12-07T00:49:29.104Z,965.33
2018-12-07T00:50:29.054Z,965.36
2018-12-07T00:51:29.005Z,965.32
2018-12-07T00:52:28.953Z,965.31
2018-12-07T00:53:29.063Z,965.30
2018-12-07T00:54:28.853Z,965.32
2018-12-07T00:55:28.803Z,965.30
2018-12-07T00:56:28.754Z,965.32
2018-12-07T00:57:28.703Z,965.30
2018-12-07T00:58:28.661Z,965.35
2018-12-07T00:59:28.605Z,965.33
2018-12-07T01:00:28.769Z,965.27
2018-12-07T01:01:28.503Z,965.35
2018-12-07T01:02:28.453Z,965.35
2018-12-07T01:03:28.423Z,965.37
2018-12-07T01:04:28.355Z,965.37
2018-12-07T01:05:28.460Z,965.37
2018-12-07T01:06:28.257Z,965.36
2018-12-07T01:07:28.205Z,965.39
2018-12-07T01:08:28.171Z,965.39
2018-12-07T01:09:28.103Z,965.45
2018-12-07T01:10:28.271Z,965.42
2018-12-07T01:11:28.007Z,965.45
2018-12-07T01:12:27.954Z,965.45
2018-12-07T01:13:27.922Z,965.41
2018-12-07T01:14:27.855Z,965.44
2018-12-07T01:15:27.985Z,965.42
2018-12-07T01:16:27.754Z,965.39
2018-12-07T01:17:27.703Z,965.42
2018-12-07T01:18:27.673Z,965.34
2018-12-07T01:19:27.605Z,965.34
2018-12-07T01:20:27.778Z,965.39
2018-12-07T01:21:27.508Z,965.38
2018-12-07T01:22:27.454Z,965.39
2018-12-07T01:23:27.422Z,965.38
2018-12-07T01:24:27.357Z,965.42
2018-12-07T01:25:27.487Z,965.42
2018-12-07T01:26:27.257Z,965.37
2018-12-07T01:27:27.206Z,965.44
2018-12-07T01:28:27.176Z,965.39
2018-12-07T01:29:27.105Z,965.46
2018-12-07T01:30:27.275Z,965.42
2018-12-07T01:31:27.009Z,965.42
2018-12-07T01:32:26.955Z,965.39
2018-12-07T01:33:26.924Z,965.37
2018-12-07T01:34:26.857Z,965.36
2018-12-07T01:35:26.984Z,965.38
2018-12-07T01:36:26.755Z,965.40
2018-12-07T01:37:26.705Z,965.30
2018-12-07T01:38:26.676Z,965.31
2018-12-07T01:39:26.613Z,965.29
2018-12-07T01:40:26.785Z,965.29
2018-12-07T01:41:26.504Z,965.26
2018-12-07T01:42:26.460Z,965.27
2018-12-07T01:43:26.424Z,965.22
2018-12-07T01:44:26.358Z,965.25
2018-12-07T01:45:26.494Z,965.23
2018-12-07T01:46:26.256Z,965.18
2018-12-07T01:47:26.206Z,965.17
2018-12-07T01:48:26.173Z,965.17
2018-12-07T01:49:26.158Z,965.14
2018-12-07T01:50:26.299Z,965.11
2018-12-07T01:51:26.011Z,965.06
2018-12-07T01:52:25.957Z,965.08
2018-12-07T01:53:25.924Z,965.06
2018-12-07T01:54:25.857Z,965.04
2018-12-07T01:55:26.008Z,965.01
2018-12-07T01:56:25.755Z,965.03
2018-12-07T01:57:25.706Z,965.04
2018-12-07T01:58:25.675Z,965.03
2018-12-07T01:59:25.604Z,965.09
2018-12-07T02:00:25.689Z,965.10
2018-12-07T02:01:25.507Z,965.05
2018-12-07T02:02:25.458Z,965.10
2018-12-07T02:03:25.421Z,965.08
2018-12-07T02:04:25.358Z,965.10
2018-12-07T02:05:25.503Z,965.08
2018-12-07T02:06:25.258Z,965.04
2018-12-07T02:07:25.208Z,965.11
2018-12-07T02:08:25.177Z,965.09
2018-12-07T02:09:25.108Z,965.09
2018-12-07T02:10:25.199Z,965.09
2018-12-07T02:11:25.008Z,965.07
2018-12-07T02:12:24.961Z,965.07
2018-12-07T02:13:24.922Z,965.07
2018-12-07T02:14:24.859Z,965.07
2018-12-07T02:15:25.001Z,964.99
2018-12-07T02:16:24.758Z,965.03
2018-12-07T02:17:24.710Z,965.04
2018-12-07T02:18:24.677Z,965.03
2018-12-07T02:19:24.610Z,965.03
2018-12-07T02:20:24.706Z,965.01
2018-12-07T02:21:24.509Z,964.95
2018-12-07T02:22:24.459Z,965.01
2018-12-07T02:23:24.411Z,965.02
2018-12-07T02:24:24.358Z,965.00
2018-12-07T02:25:24.519Z,964.94
2018-12-07T02:26:24.257Z,964.95
2018-12-07T02:27:24.208Z,964.88
2018-12-07T02:28:24.176Z,964.82
2018-12-07T02:29:24.109Z,964.85
2018-12-07T02:30:24.204Z,964.84
2018-12-07T02:31:24.008Z,964.82
2018-12-07T02:32:23.957Z,964.86
2018-12-07T02:33:23.930Z,964.90
2018-12-07T02:34:23.860Z,964.81
2018-12-07T02:35:24.022Z,964.81
2018-12-07T02:36:23.758Z,964.85
2018-12-07T02:37:23.709Z,964.79
2018-12-07T02:38:23.677Z,964.82
2018-12-07T02:39:23.617Z,964.77
2018-12-07T02:40:23.724Z,964.79
2018-12-07T02:41:23.511Z,964.81
2018-12-07T02:42:23.460Z,964.83
2018-12-07T02:43:23.437Z,964.79
2018-12-07T02:44:23.358Z,964.84
2018-12-07T02:45:23.515Z,964.76
2018-12-07T02:46:23.258Z,964.79
2018-12-07T02:47:23.209Z,964.77
2018-12-07T02:48:23.178Z,964.69
2018-12-07T02:49:23.111Z,964.76
2018-12-07T02:50:23.204Z,964.72
2018-12-07T02:51:23.012Z,964.70
2018-12-07T02:52:22.958Z,964.62
2018-12-07T02:53:22.936Z,964.60
2018-12-07T02:54:22.859Z,964.63
2018-12-07T02:55:23.017Z,964.62
2018-12-07T02:56:22.760Z,964.59
2018-12-07T02:57:22.711Z,964.53
2018-12-07T02:58:22.684Z,964.58
2018-12-07T02:59:22.615Z,964.57
2018-12-07T03:00:22.729Z,964.53
2018-12-07T03:01:22.510Z,964.60
2018-12-07T03:02:22.463Z,964.52
2018-12-07T03:03:22.429Z,964.54
2018-12-07T03:04:22.361Z,964.51
2018-12-07T03:05:22.537Z,964.46
2018-12-07T03:06:22.262Z,964.47
2018-12-07T03:07:22.218Z,964.44
2018-12-07T03:08:22.179Z,964.39
2018-12-07T03:09:22.111Z,964.35
2018-12-07T03:10:22.106Z,964.34
2018-12-07T03:11:22.014Z,964.38
2018-12-07T03:12:21.961Z,964.34
2018-12-07T03:13:21.911Z,964.31
2018-12-07T03:14:22.026Z,964.29
2018-12-07T03:15:21.830Z,964.24
2018-12-07T03:16:21.761Z,964.22
2018-12-07T03:17:21.732Z,964.24
2018-12-07T03:18:21.667Z,964.16
2018-12-07T03:19:21.833Z,964.13
2018-12-07T03:20:21.563Z,964.17
2018-12-07T03:21:21.518Z,964.12
2018-12-07T03:22:21.479Z,964.16
2018-12-07T03:23:21.414Z,964.13
2018-12-07T03:24:21.535Z,964.12
2018-12-07T03:25:21.314Z,964.11
2018-12-07T03:26:21.265Z,964.09
2018-12-07T03:27:21.215Z,964.12
2018-12-07T03:28:21.163Z,964.15
2018-12-07T03:29:21.340Z,964.15
2018-12-07T03:30:21.064Z,964.11
2018-12-07T03:31:21.020Z,964.12
2018-12-07T03:32:20.989Z,964.14
2018-12-07T03:33:20.915Z,964.14
2018-12-07T03:34:21.029Z,964.12
2018-12-07T03:35:20.814Z,964.11
2018-12-07T03:36:20.763Z,964.07
2018-12-07T03:37:20.731Z,964.10
2018-12-07T03:38:20.664Z,964.14
2018-12-07T03:39:20.844Z,964.15
2018-12-07T03:40:20.563Z,964.18
2018-12-07T03:41:20.519Z,964.13
2018-12-07T03:42:20.482Z,964.14
2018-12-07T03:43:20.417Z,964.13
2018-12-07T03:44:20.540Z,964.11
2018-12-07T03:45:20.317Z,964.11
2018-12-07T03:46:20.264Z,964.08
2018-12-07T03:47:20.234Z,964.09
2018-12-07T03:48:20.165Z,964.15
2018-12-07T03:49:20.132Z,964.10
2018-12-07T03:50:20.065Z,964.12
2018-12-07T03:51:20.253Z,964.12
2018-12-07T03:52:19.963Z,964.08
2018-12-07T03:53:19.915Z,964.10
2018-12-07T03:54:19.882Z,964.08
2018-12-07T03:55:19.815Z,964.08
2018-12-07T03:56:19.765Z,964.07
2018-12-07T03:57:19.717Z,964.07
2018-12-07T03:58:19.853Z,964.05
2018-12-07T03:59:19.614Z,964.11
2018-12-07T04:00:19.566Z,964.09
2018-12-07T04:01:19.534Z,964.08
2018-12-07T04:02:19.472Z,964.07
2018-12-07T04:03:19.665Z,964.05
2018-12-07T04:04:19.367Z,964.10
2018-12-07T04:05:19.321Z,964.06
2018-12-07T04:06:19.274Z,964.04
2018-12-07T04:07:19.217Z,964.09
2018-12-07T04:08:19.356Z,964.00
2018-12-07T04:09:19.116Z,964.04
2018-12-07T04:10:19.068Z,964.02
2018-12-07T04:11:19.034Z,963.98
2018-12-07T04:12:18.963Z,964.00
2018-12-07T04:13:19.066Z,963.95
2018-12-07T04:14:18.866Z,963.92
2018-12-07T04:15:18.819Z,963.90
2018-12-07T04:16:18.797Z,963.90
2018-12-07T04:17:18.716Z,963.87
2018-12-07T04:18:18.861Z,963.82
2018-12-07T04:19:18.618Z,963.87
2018-12-07T04:20:18.566Z,963.87
2018-12-07T04:21:18.516Z,963.80
2018-12-07T04:22:18.470Z,963.88
2018-12-07T04:23:18.572Z,963.86
2018-12-07T04:24:18.369Z,963.96
2018-12-07T04:25:18.319Z,963.94
2018-12-07T04:26:18.267Z,963.91
2018-12-07T04:27:18.223Z,963.93
2018-12-07T04:28:18.362Z,963.84
2018-12-07T04:29:18.118Z,963.90
2018-12-07T04:30:18.068Z,963.90
2018-12-07T04:31:18.035Z,963.84
2018-12-07T04:32:17.968Z,963.87
2018-12-07T04:33:18.074Z,963.81
2018-12-07T04:34:17.872Z,963.82
2018-12-07T04:35:17.830Z,963.81
2018-12-07T04:36:17.770Z,963.73
2018-12-07T04:37:17.722Z,963.72
2018-12-07T04:38:17.874Z,963.74
2018-12-07T04:39:17.621Z,963.72
2018-12-07T04:40:17.576Z,963.72
2018-12-07T04:41:17.519Z,963.75
2018-12-07T04:42:17.472Z,963.73
2018-12-07T04:43:17.484Z,963.76
2018-12-07T04:44:17.371Z,963.72
2018-12-07T04:45:17.329Z,963.76
2018-12-07T04:46:17.291Z,963.78
2018-12-07T04:47:17.222Z,963.76
2018-12-07T04:48:17.369Z,963.72
2018-12-07T04:49:17.123Z,963.74
2018-12-07T04:50:17.071Z,963.72
2018-12-07T04:51:17.022Z,963.76
2018-12-07T04:52:16.973Z,963.71
2018-12-07T04:53:17.075Z,963.74
2018-12-07T04:54:16.873Z,963.70
2018-12-07T04:55:16.823Z,963.71
2018-12-07T04:56:16.793Z,963.70
2018-12-07T04:57:16.722Z,963.73
2018-12-07T04:58:16.878Z,963.71
2018-12-07T04:59:16.628Z,963.72
2018-12-07T05:00:16.572Z,963.74
2018-12-07T05:01:16.542Z,963.71
2018-12-07T05:02:16.477Z,963.67
2018-12-07T05:03:16.576Z,963.67
2018-12-07T05:04:16.375Z,963.64
2018-12-07T05:05:16.325Z,963.65
2018-12-07T05:06:16.275Z,963.62
2018-12-07T05:07:16.226Z,963.58
2018-12-07T05:08:16.395Z,963.59
2018-12-07T05:09:16.124Z,963.58
2018-12-07T05:10:16.075Z,963.55
2018-12-07T05:11:16.044Z,963.58
2018-12-07T05:12:15.976Z,963.56
2018-12-07T05:13:16.084Z,963.52
2018-12-07T05:14:15.877Z,963.52
2018-12-07T05:15:15.825Z,963.48
2018-12-07T05:16:15.793Z,963.52
2018-12-07T05:17:15.727Z,963.52
2018-12-07T05:18:15.894Z,963.51
2018-12-07T05:19:15.626Z,963.48
2018-12-07T05:20:15.576Z,963.46
2018-12-07T05:21:15.528Z,963.44
2018-12-07T05:22:15.477Z,963.47
2018-12-07T05:23:15.598Z,963.44
2018-12-07T05:24:15.380Z,963.38
2018-12-07T05:25:15.324Z,963.39
2018-12-07T05:26:26.470Z,963.38
2018-12-07T05:27:15.232Z,963.33
2018-12-07T05:28:15.393Z,963.34
2018-12-07T05:29:15.125Z,963.38
2018-12-07T05:30:15.078Z,963.38
2018-12-07T05:31:15.048Z,963.38
2018-12-07T05:32:14.977Z,963.39
2018-12-07T05:33:15.102Z,963.40
2018-12-07T05:34:14.880Z,963.38
2018-12-07T05:35:14.831Z,963.41
2018-12-07T05:36:14.779Z,963.39
2018-12-07T05:37:14.729Z,963.42
2018-12-07T05:38:14.891Z,963.46
2018-12-07T05:39:14.637Z,963.37
2018-12-07T05:40:14.580Z,963.41
2018-12-07T05:41:14.548Z,963.37
2018-12-07T05:42:14.479Z,963.38
2018-12-07T05:43:14.604Z,963.34
2018-12-07T05:44:14.381Z,963.37
2018-12-07T05:45:14.330Z,963.38
2018-12-07T05:46:14.303Z,963.35
2018-12-07T05:47:14.230Z,963.30
2018-12-07T05:48:14.402Z,963.33
2018-12-07T05:49:14.132Z,963.31
2018-12-07T05:50:14.080Z,963.31
2018-12-07T05:51:14.033Z,963.29
2018-12-07T05:52:13.982Z,963.29
2018-12-07T05:53:14.102Z,963.24
2018-12-07T05:54:13.885Z,963.26
2018-12-07T05:55:13.833Z,963.26
2018-12-07T05:56:13.784Z,963.24
2018-12-07T05:57:13.734Z,963.29
2018-12-07T05:58:13.684Z,963.26
2018-12-07T05:59:13.631Z,963.23
2018-12-07T06:00:13.582Z,963.21
2018-12-07T06:01:13.531Z,963.19
2018-12-07T06:02:13.601Z,963.20
2018-12-07T06:03:13.434Z,963.19
2018-12-07T06:04:13.383Z,963.19
2018-12-07T06:05:13.353Z,963.22
2018-12-07T06:06:13.287Z,963.20
2018-12-07T06:07:13.417Z,963.23
2018-12-07T06:08:13.184Z,963.19
2018-12-07T06:09:13.136Z,963.14
2018-12-07T06:10:13.101Z,963.17
2018-12-07T06:11:13.040Z,963.20
2018-12-07T06:12:13.222Z,963.19
2018-12-07T06:13:12.936Z,963.15
2018-12-07T06:14:12.886Z,963.11
2018-12-07T06:15:12.852Z,963.10
2018-12-07T06:16:12.788Z,963.12
2018-12-07T06:17:12.911Z,963.10
2018-12-07T06:18:12.692Z,963.07
2018-12-07T06:19:12.639Z,963.08
2018-12-07T06:20:12.601Z,963.14
2018-12-07T06:21:12.539Z,963.08
2018-12-07T06:22:12.487Z,963.09
2018-12-07T06:23:12.443Z,963.07
2018-12-07T06:24:12.385Z,963.09
2018-12-07T06:25:12.338Z,963.09
2018-12-07T06:26:12.346Z,963.05
2018-12-07T06:27:12.237Z,963.03
2018-12-07T06:28:12.189Z,963.03
2018-12-07T06:29:12.138Z,962.98
2018-12-07T06:30:12.090Z,962.98
2018-12-07T06:31:12.039Z,963.02
2018-12-07T06:32:11.993Z,962.99
2018-12-07T06:33:11.940Z,962.99
2018-12-07T06:34:12.119Z,962.94
2018-12-07T06:35:11.841Z,962.94
2018-12-07T06:36:11.790Z,962.99
2018-12-07T06:37:11.740Z,962.93
2018-12-07T06:38:11.688Z,962.89
2018-12-07T06:39:11.640Z,962.93
2018-12-07T06:40:11.597Z,962.92
2018-12-07T06:41:11.637Z,962.93
2018-12-07T06:42:11.485Z,962.93
2018-12-07T06:43:11.443Z,962.92
2018-12-07T06:44:11.392Z,962.95
2018-12-07T06:45:11.340Z,962.91
2018-12-07T06:46:11.293Z,962.92
2018-12-07T06:47:11.242Z,962.93
2018-12-07T06:48:11.214Z,962.93
2018-12-07T06:49:11.141Z,962.95
2018-12-07T06:50:11.093Z,962.95
2018-12-07T06:51:11.065Z,963.00
2018-12-07T06:52:11.271Z,962.97
2018-12-07T06:53:12.768Z,962.96
2018-12-07T06:54:10.919Z,962.95
2018-12-07T06:55:12.716Z,962.93
2018-12-07T06:56:11.742Z,962.95
2018-12-07T06:57:10.751Z,962.92
2018-12-07T06:58:10.700Z,962.89
2018-12-07T06:59:10.844Z,962.93
2018-12-07T07:00:10.594Z,962.92
2018-12-07T07:01:10.546Z,962.87
2018-12-07T07:02:10.521Z,962.90
2018-12-07T07:03:10.445Z,962.85
2018-12-07T07:04:10.399Z,962.90
2018-12-07T07:05:10.348Z,962.84
2018-12-07T07:06:10.296Z,962.86
2018-12-07T07:07:10.250Z,962.89
2018-12-07T07:08:10.195Z,962.84
2018-12-07T07:09:10.156Z,962.82
2018-12-07T07:10:10.100Z,962.79
2018-12-07T07:11:10.051Z,962.81
2018-12-07T07:12:10.000Z,962.81
2018-12-07T07:13:09.947Z,962.78
2018-12-07T07:14:09.898Z,962.79
2018-12-07T07:15:09.850Z,962.79
2018-12-07T07:16:09.810Z,962.80
2018-12-07T07:17:09.749Z,962.81
2018-12-07T07:18:09.706Z,962.74
2018-12-07T07:19:09.651Z,962.79
2018-12-07T07:20:09.597Z,962.77
2018-12-07T07:21:09.549Z,962.71
2018-12-07T07:22:09.502Z,962.68
2018-12-07T07:23:09.455Z,962.68
2018-12-07T07:24:09.542Z,962.62
2018-12-07T07:25:09.358Z,962.65
2018-12-07T07:26:09.305Z,962.62
2018-12-07T07:27:09.256Z,962.60
2018-12-07T07:28:09.203Z,962.62
2018-12-07T07:29:09.153Z,962.60
2018-12-07T07:30:09.228Z,962.60
2018-12-07T07:31:09.055Z,962.54
2018-12-07T07:32:09.712Z,962.62
2018-12-07T07:33:08.982Z,962.61
2018-12-07T07:34:08.902Z,962.61
2018-12-07T07:35:08.859Z,962.65
2018-12-07T07:36:08.811Z,962.60
2018-12-07T07:37:08.760Z,962.56
2018-12-07T07:38:08.717Z,962.56
2018-12-07T07:39:08.661Z,962.55
2018-12-07T07:40:08.609Z,962.57
2018-12-07T07:41:08.557Z,962.55
2018-12-07T07:42:08.584Z,962.51
2018-12-07T07:43:08.458Z,962.52
2018-12-07T07:44:08.413Z,962.51
2018-12-07T07:45:08.359Z,962.46
2018-12-07T07:46:08.313Z,962.44
2018-12-07T07:47:08.361Z,962.42
2018-12-07T07:48:08.237Z,962.42
2018-12-07T07:49:08.178Z,962.51
2018-12-07T07:50:08.125Z,962.49
2018-12-07T07:51:08.058Z,962.41
2018-12-07T07:52:08.014Z,962.39
2018-12-07T07:53:07.961Z,962.34
2018-12-07T07:54:07.920Z,962.36
2018-12-07T07:55:07.933Z,962.31
2018-12-07T07:56:15.153Z,962.37
2018-12-07T07:57:07.771Z,962.36
2018-12-07T07:58:07.721Z,962.35
2018-12-07T07:59:07.672Z,962.38
2018-12-07T08:00:07.623Z,962.37
2018-12-07T08:01:07.570Z,962.35
2018-12-07T08:02:07.520Z,962.38
2018-12-07T08:03:07.516Z,962.35
2018-12-07T08:04:07.417Z,962.31
2018-12-07T08:05:07.372Z,962.32
2018-12-07T08:06:07.330Z,962.35
2018-12-07T08:07:07.614Z,962.36
2018-12-07T08:08:07.418Z,962.35
2018-12-07T08:09:07.170Z,962.35
2018-12-07T08:10:07.123Z,962.35
2018-12-07T08:11:07.075Z,962.27
2018-12-07T08:12:07.039Z,962.33
2018-12-07T08:13:06.974Z,962.32
2018-12-07T08:14:06.929Z,962.29
2018-12-07T08:15:06.942Z,962.26
2018-12-07T08:17:38.870Z,962.28
2018-12-07T08:18:38.912Z,962.26
2018-12-07T08:19:38.748Z,962.22
2018-12-07T08:20:38.716Z,962.20
2018-12-07T08:21:38.654Z,962.21
2018-12-07T08:22:38.612Z,962.17
2018-12-07T08:23:38.550Z,962.19
2018-12-07T08:24:38.502Z,962.15
2018-12-07T08:25:38.450Z,962.19
2018-12-07T08:26:38.406Z,962.13
2018-12-07T08:27:38.586Z,962.07
2018-12-07T08:28:38.361Z,962.05
2018-12-07T08:29:38.271Z,962.03
2018-12-07T08:30:38.214Z,962.01
2018-12-07T08:31:38.147Z,962.01
2018-12-07T08:32:38.106Z,962.00
2018-12-07T08:33:38.054Z,961.97
2018-12-07T08:34:38.016Z,961.97
2018-12-07T08:35:37.957Z,961.98
2018-12-07T08:36:37.915Z,961.97
2018-12-07T08:37:37.869Z,961.92
2018-12-07T08:38:37.809Z,961.97
2018-12-07T08:39:37.767Z,961.92
2018-12-07T08:40:37.771Z,961.94
2018-12-07T08:41:37.671Z,961.96
2018-12-07T08:42:37.622Z,961.88
2018-12-07T08:43:37.567Z,961.93
2018-12-07T08:44:37.513Z,961.88
2018-12-07T08:45:37.464Z,961.85
2018-12-07T08:46:37.415Z,961.90
2018-12-07T08:47:37.372Z,961.86
2018-12-07T08:48:37.320Z,961.85
2018-12-07T08:49:37.275Z,961.86
2018-12-07T08:50:37.219Z,961.85
2018-12-07T08:51:37.176Z,961.89
2018-12-07T08:52:37.124Z,961.87
2018-12-07T08:53:37.115Z,961.85
2018-12-07T08:54:37.034Z,961.88
2018-12-07T08:55:36.982Z,961.79
2018-12-07T08:56:36.934Z,961.78
2018-12-07T08:57:36.886Z,961.82
2018-12-07T08:58:36.895Z,961.81
2018-12-07T08:59:36.779Z,961.85
2018-12-07T09:00:36.727Z,961.80
2018-12-07T09:01:38.070Z,961.82
2018-12-07T09:02:36.642Z,961.80
2018-12-07T09:03:36.588Z,961.85
2018-12-07T09:04:36.532Z,961.89
2018-12-07T09:05:36.484Z,961.83
2018-12-07T09:06:36.440Z,961.88
2018-12-07T09:07:36.451Z,961.87
2018-12-07T09:08:36.331Z,961.83
2018-12-07T09:09:37.096Z,961.89
2018-12-07T09:10:36.233Z,961.86
2018-12-07T09:11:36.194Z,961.90
2018-12-07T09:12:36.139Z,961.90
2018-12-07T09:13:36.094Z,961.87
2018-12-07T09:14:36.045Z,961.88
2018-12-07T09:15:36.005Z,961.81
2018-12-07T09:16:35.956Z,961.84
2018-12-07T09:17:35.898Z,961.81
2018-12-07T09:18:35.849Z,961.83
2018-12-07T09:19:35.819Z,961.79
2018-12-07T09:20:35.756Z,961.79
2018-12-07T09:21:35.706Z,961.77
2018-12-07T09:22:35.677Z,961.67
2018-12-07T09:23:35.617Z,961.71
2018-12-07T09:24:35.567Z,961.70
2018-12-07T09:25:35.510Z,961.65
2018-12-07T09:26:35.468Z,961.66
2018-12-07T09:27:35.420Z,961.63
2018-12-07T09:28:35.375Z,961.60
2018-12-07T09:29:35.313Z,961.55
2018-12-07T09:30:35.268Z,961.52
2018-12-07T09:31:35.219Z,961.56
2018-12-07T09:32:35.165Z,961.64
2018-12-07T09:33:35.123Z,961.53
2018-12-07T09:34:35.072Z,961.45
2018-12-07T09:35:35.028Z,961.42
2018-12-07T09:36:34.972Z,961.41
2018-12-07T09:37:34.930Z,961.47
2018-12-07T09:38:34.880Z,961.44
2018-12-07T09:39:34.828Z,961.39
2018-12-07T09:40:34.786Z,961.34
2018-12-07T09:41:34.733Z,961.39
2018-12-07T09:42:34.707Z,961.31
2018-12-07T09:43:34.639Z,961.34
2018-12-07T09:44:34.605Z,961.29
2018-12-07T09:45:34.540Z,961.35
2018-12-07T09:46:34.502Z,961.33
2018-12-07T09:47:34.447Z,961.35
2018-12-07T09:48:34.402Z,961.32
2018-12-07T09:49:34.350Z,961.34
2018-12-07T09:50:34.304Z,961.29
2018-12-07T09:51:34.253Z,961.29
2018-12-07T09:52:34.206Z,961.23
2018-12-07T09:53:34.518Z,961.12
2018-12-07T09:54:34.110Z,961.08
2018-12-07T09:55:34.076Z,960.93
2018-12-07T09:56:34.031Z,960.95
2018-12-07T09:57:33.972Z,960.97
2018-12-07T09:58:33.945Z,960.94
2018-12-07T09:59:33.876Z,960.98
2018-12-07T10:00:33.823Z,961.03
2018-12-07T10:01:33.774Z,960.99
2018-12-07T10:02:33.728Z,961.04
2018-12-07T10:03:33.688Z,960.93
2018-12-07T10:04:33.640Z,960.98
2018-12-07T10:05:33.590Z,961.01
2018-12-07T10:06:33.547Z,960.91
2018-12-07T10:07:33.510Z,960.98
2018-12-07T10:08:33.445Z,960.86
2018-12-07T10:09:33.425Z,960.83
2018-12-07T10:10:33.348Z,960.75
2018-12-07T10:11:33.504Z,960.77
2018-12-07T10:12:33.248Z,960.69
2018-12-07T10:13:33.206Z,960.64
2018-12-07T10:14:33.148Z,960.62
2018-12-07T10:15:33.123Z,960.62
2018-12-07T10:16:33.068Z,960.53
2018-12-07T10:17:33.121Z,960.55
2018-12-07T10:18:32.962Z,960.54
2018-12-07T10:19:32.913Z,960.55
2018-12-07T10:20:32.865Z,960.56
2018-12-07T10:21:32.818Z,960.52
2018-12-07T10:22:32.768Z,960.46
2018-12-07T10:23:32.717Z,960.46
2018-12-07T10:24:32.667Z,960.43
2018-12-07T10:25:32.633Z,960.40
2018-12-07T10:26:32.728Z,960.38
2018-12-07T10:27:32.527Z,960.34
2018-12-07T10:28:32.484Z,960.37
2018-12-07T10:29:32.432Z,960.34
2018-12-07T10:30:32.382Z,960.26
2018-12-07T10:31:32.406Z,960.26
2018-12-07T10:32:32.287Z,960.24
2018-12-07T10:33:32.238Z,960.20
2018-12-07T10:34:32.245Z,960.19
2018-12-07T10:35:32.338Z,960.12
2018-12-07T10:36:32.096Z,960.16
2018-12-07T10:37:32.039Z,960.08
2018-12-07T10:38:31.998Z,960.07
2018-12-07T10:39:31.947Z,959.99
2018-12-07T10:40:32.138Z,960.05
2018-12-07T10:41:31.843Z,959.95
2018-12-07T10:42:31.800Z,959.96
2018-12-07T10:43:31.778Z,959.87
2018-12-07T10:44:31.725Z,959.86
2018-12-07T10:45:31.838Z,959.83
2018-12-07T10:46:31.610Z,959.86
2018-12-07T10:47:33.063Z,959.82
2018-12-07T10:48:31.513Z,959.84
2018-12-07T10:49:31.460Z,959.76
2018-12-07T10:50:31.594Z,959.76
2018-12-07T10:51:31.368Z,959.81
2018-12-07T10:52:31.327Z,959.75
2018-12-07T10:53:31.287Z,959.73
2018-12-07T10:54:31.224Z,959.73
2018-12-07T10:55:31.351Z,959.71
2018-12-07T10:56:31.126Z,959.76
2018-12-07T10:57:31.090Z,959.78
2018-12-07T10:58:31.032Z,959.73
2018-12-07T10:59:30.983Z,959.72
2018-12-07T11:00:30.953Z,959.69
2018-12-07T11:01:30.889Z,959.66
2018-12-07T11:02:31.042Z,959.67
2018-12-07T11:03:30.791Z,959.62
2018-12-07T11:04:30.735Z,959.65
2018-12-07T11:05:30.711Z,959.62
2018-12-07T11:06:30.648Z,959.59
2018-12-07T11:07:30.739Z,959.59
2018-12-07T11:08:30.566Z,959.55
2018-12-07T11:09:30.500Z,959.56
2018-12-07T11:10:30.454Z,959.57
2018-12-07T11:11:30.404Z,959.54
2018-12-07T11:12:30.355Z,959.53
2018-12-07T11:13:30.314Z,959.58
2018-12-07T11:14:30.455Z,959.49
2018-12-07T11:15:30.221Z,959.42
2018-12-07T11:16:30.168Z,959.43
2018-12-07T11:17:30.116Z,959.38
2018-12-07T11:18:30.068Z,959.44
2018-12-07T11:19:30.246Z,959.46
2018-12-07T11:20:29.972Z,959.41
2018-12-07T11:21:29.924Z,959.35
2018-12-07T11:22:29.897Z,959.33
2018-12-07T11:23:29.837Z,959.31
2018-12-07T11:24:29.875Z,959.26
2018-12-07T11:25:29.730Z,959.28
2018-12-07T11:26:29.685Z,959.21
2018-12-07T11:27:29.640Z,959.15
2018-12-07T11:28:29.749Z,959.13
2018-12-07T11:29:29.546Z,959.21
2018-12-07T11:30:29.507Z,959.14
2018-12-07T11:31:29.443Z,959.04
2018-12-07T11:32:29.399Z,959.04
2018-12-07T11:33:29.570Z,959.10
2018-12-07T11:34:29.315Z,959.04
2018-12-07T11:35:29.255Z,959.11
2018-12-07T11:36:29.205Z,959.08
2018-12-07T11:37:29.158Z,959.08
2018-12-07T11:38:29.109Z,959.05
2018-12-07T11:39:29.056Z,959.06
2018-12-07T11:40:29.164Z,959.00
2018-12-07T11:41:28.973Z,958.94
2018-12-07T11:42:28.924Z,958.88
2018-12-07T11:43:28.868Z,958.86
2018-12-07T11:44:28.822Z,958.85
2018-12-07T11:45:28.970Z,958.78
2018-12-07T11:46:28.731Z,958.79
2018-12-07T11:47:28.677Z,958.79
2018-12-07T11:48:28.646Z,958.70
2018-12-07T11:49:28.661Z,958.69
2018-12-07T11:50:28.769Z,958.66
2018-12-07T11:51:28.489Z,958.61
2018-12-07T11:52:28.487Z,958.56
2018-12-07T11:53:28.407Z,958.56
2018-12-07T11:54:28.348Z,958.50
2018-12-07T11:55:28.474Z,958.52
2018-12-07T11:56:28.248Z,958.50
2018-12-07T11:57:28.197Z,958.48
2018-12-07T11:58:28.149Z,958.38
2018-12-07T11:59:28.102Z,958.34
2018-12-07T12:00:28.275Z,958.38
2018-12-07T12:01:28.004Z,958.32
2018-12-07T12:02:27.958Z,958.31
2018-12-07T12:03:27.928Z,958.27
2018-12-07T12:04:27.866Z,958.23
2018-12-07T12:05:27.975Z,958.21
2018-12-07T12:06:27.767Z,958.23
2018-12-07T12:07:27.725Z,958.24
2018-12-07T12:08:27.694Z,958.25
2018-12-07T12:09:27.624Z,958.25
2018-12-07T12:10:27.771Z,958.16
2018-12-07T12:11:27.535Z,958.13
2018-12-07T12:12:27.483Z,958.10
2018-12-07T12:13:27.451Z,958.05
2018-12-07T12:14:27.414Z,958.01
2018-12-07T12:15:27.346Z,958.00
2018-12-07T12:16:27.454Z,958.01
2018-12-07T12:17:27.246Z,957.94
2018-12-07T12:18:27.193Z,957.91
2018-12-07T12:19:27.148Z,957.88
2018-12-07T12:20:27.101Z,957.87
2018-12-07T12:21:27.052Z,957.84
2018-12-07T12:22:27.003Z,957.78
2018-12-07T12:23:26.958Z,957.79
2018-12-07T12:24:26.910Z,957.78
2018-12-07T12:25:26.863Z,957.71
2018-12-07T12:26:26.812Z,957.74
2018-12-07T12:27:26.776Z,957.73
2018-12-07T12:28:26.718Z,957.67
2018-12-07T12:29:26.669Z,957.62